Etusivu
METAR-TAF:

METAR-TAF

Lentoasemat :

Limoges, Ranska

Leveyspiiri: 45-52N, Pituuspiiri: 001-11E, korkeus merenpinnasta: 396 m

Tämänhetkinen sää

Tämä raportti tehtiin 29 minuuttia sitten, kello 11.30 UTC
Tuuli 13 kn idästä/koillisesta
Lämpötila 16°C
Kosteus 42%
Ilmanpaine 1032 hPa
Näkyvyys 10 km tai enemmän
ei pilviä alle 1500 m:ssä eikä cumulonimbus-pilviä

METAR: LFBL 221130Z AUTO 06013KT CAVOK 16/03 Q1032 NOSIG

Aika: 12:59 (11:59 UTC)

Sääennuste

Tämä raportti tehtiin 59 minuuttia sitten, kello 11.00 UTC
Ennuste voimassa 22. päivästä klo 12 UTC - 23. päivään klo 12 UTC
Tuuli 10 kn idästä/koillisesta
Näkyvyys 10 km tai enemmän
ei pilviä alle 1500 m:ssä eikä cumulonimbus-pilviä
Tulossa
23. päivästä klo 09 UTC - 23. päivään klo 12 UTC
Tuuli 6 kn pohjoisesta

TAF: LFBL 221100Z 2212/2312 07010KT CAVOK BECMG 2309/2312 35006KT

Säähavainnot ja -ennusteet yli 4000 lentoasemalta (METAR- ja TAF-raportit).

Käytössä olevat sääasemat on merkitty karttaan keltaisilla ja punaisilla pisteillä.

Aseta hiiri pisteen päälle nähdäksesi sääaseman nimen.

Klikkaa sitten nähdäksesi säähavainnot ja -ennusteet.

Kartan vaihtaminen: klikkaa mustalla rastilla varustettuja vihreitä pisteitä, niin voit zoomata sisään; viivalla varustettua vihreää pistettä, niin voit zoomata ulos tai vihreitä nuolia, niin pääset viereisille kartoille.


METAR-TAF: